createdAt,value
2022-12-27T00:01:11.048Z,39.91
2022-12-27T00:03:37.503Z,39.91
2022-12-27T00:06:12.734Z,39.94
2022-12-27T00:08:39.214Z,40.13
2022-12-27T00:11:10.416Z,39.89
2022-12-27T00:13:36.888Z,39.82
2022-12-27T00:16:07.952Z,39.68
2022-12-27T00:18:34.490Z,40.04
2022-12-27T00:21:01.291Z,39.87
2022-12-27T00:23:27.971Z,40.19
2022-12-27T00:26:08.152Z,39.46
2022-12-27T00:28:34.744Z,39.28
2022-12-27T00:31:01.310Z,39.27
2022-12-27T00:33:28.414Z,39.51
2022-12-27T00:35:55.038Z,39.43
2022-12-27T00:38:21.573Z,39.65
2022-12-27T00:40:48.072Z,39.54
2022-12-27T00:43:14.518Z,39.30
2022-12-27T00:45:41.264Z,39.51
2022-12-27T00:48:07.747Z,39.22
2022-12-27T00:50:34.201Z,39.38
2022-12-27T00:53:00.674Z,39.20
2022-12-27T00:55:27.138Z,39.30
2022-12-27T00:57:54.334Z,39.25
2022-12-27T01:00:20.784Z,39.18
2022-12-27T01:02:47.263Z,39.22
2022-12-27T01:05:13.706Z,39.21
2022-12-27T01:07:40.165Z,39.23
2022-12-27T01:10:06.794Z,39.04
2022-12-27T01:12:34.522Z,39.08
2022-12-27T01:15:00.970Z,39.26
2022-12-27T01:17:29.339Z,39.15
2022-12-27T01:19:55.854Z,39.24
2022-12-27T01:22:22.308Z,39.04
2022-12-27T01:24:48.759Z,38.94
2022-12-27T01:27:15.223Z,39.19
2022-12-27T01:29:41.677Z,39.15
2022-12-27T01:32:08.159Z,39.18
2022-12-27T01:34:34.637Z,39.10
2022-12-27T01:37:01.402Z,39.23
2022-12-27T01:39:27.861Z,39.15
2022-12-27T01:42:12.654Z,38.96
2022-12-27T01:44:39.479Z,39.16
2022-12-27T01:47:23.865Z,39.25
2022-12-27T01:49:58.272Z,39.00
2022-12-27T01:52:26.178Z,39.07
2022-12-27T01:54:54.086Z,39.06
2022-12-27T01:57:20.933Z,38.81
2022-12-27T01:59:47.487Z,39.08
2022-12-27T02:02:14.096Z,38.94
2022-12-27T02:04:40.642Z,38.84
2022-12-27T02:07:07.144Z,38.70
2022-12-27T02:09:36.398Z,38.74
2022-12-27T02:12:03.152Z,39.05
2022-12-27T02:14:31.942Z,38.75
2022-12-27T02:16:59.483Z,38.79
2022-12-27T02:19:39.852Z,38.77
2022-12-27T02:22:59.164Z,38.74
2022-12-27T02:26:04.794Z,38.60
2022-12-27T02:29:02.558Z,38.52
2022-12-27T02:31:53.879Z,38.36
2022-12-27T02:34:25.240Z,38.21
2022-12-27T02:36:53.086Z,38.44
2022-12-27T02:39:19.571Z,38.63
2022-12-27T02:42:04.625Z,38.72
2022-12-27T02:44:49.831Z,38.51
2022-12-27T02:47:38.966Z,38.35
2022-12-27T02:50:25.057Z,38.35
2022-12-27T02:53:05.882Z,38.25
2022-12-27T02:56:09.227Z,38.31
2022-12-27T02:58:47.417Z,38.36
2022-12-27T03:01:57.001Z,38.49
2022-12-27T03:04:42.128Z,38.48
2022-12-27T03:07:38.512Z,38.42
2022-12-27T03:11:00.717Z,38.16
2022-12-27T03:13:55.063Z,38.30
2022-12-27T03:16:27.674Z,38.20
2022-12-27T03:19:07.036Z,38.15
2022-12-27T03:21:54.868Z,38.04
2022-12-27T03:24:43.974Z,38.02
2022-12-27T03:27:18.239Z,38.20
2022-12-27T03:30:11.293Z,38.26
2022-12-27T03:32:59.649Z,38.14
2022-12-27T03:35:26.103Z,38.02
2022-12-27T03:38:03.046Z,38.12
2022-12-27T03:41:06.550Z,37.79
2022-12-27T03:43:33.566Z,37.78
2022-12-27T03:46:36.423Z,37.63
2022-12-27T03:49:24.207Z,37.41
2022-12-27T03:51:58.206Z,37.49
2022-12-27T03:54:34.629Z,37.50
2022-12-27T03:57:03.338Z,37.36
2022-12-27T03:59:29.793Z,37.32
2022-12-27T04:01:56.413Z,37.43
2022-12-27T04:04:22.981Z,37.48
2022-12-27T04:06:49.681Z,37.37
2022-12-27T04:09:34.320Z,37.38
2022-12-27T04:12:19.460Z,37.14
2022-12-27T04:15:04.152Z,37.27
2022-12-27T04:17:48.845Z,37.36
2022-12-27T04:20:34.115Z,37.27
2022-12-27T04:23:19.284Z,37.21
2022-12-27T04:26:04.373Z,37.06
2022-12-27T04:28:49.139Z,37.28
2022-12-27T04:31:34.046Z,37.35
2022-12-27T04:34:19.423Z,37.30
2022-12-27T04:36:45.919Z,37.21
2022-12-27T04:39:12.674Z,37.39
2022-12-27T04:41:57.461Z,37.15
2022-12-27T04:44:42.327Z,37.29
2022-12-27T04:47:32.763Z,37.25
2022-12-27T04:50:18.047Z,37.33
2022-12-27T04:53:02.902Z,36.96
2022-12-27T04:55:29.620Z,37.11
2022-12-27T04:57:56.512Z,37.10
2022-12-27T05:00:42.915Z,36.91
2022-12-27T05:03:12.072Z,37.12
2022-12-27T05:05:38.629Z,36.94
2022-12-27T05:08:24.184Z,36.89
2022-12-27T05:11:09.354Z,36.87
2022-12-27T05:13:54.134Z,36.89
2022-12-27T05:16:20.662Z,36.94
2022-12-27T05:18:47.179Z,36.87
2022-12-27T05:21:13.627Z,36.75
2022-12-27T05:24:04.941Z,36.70
2022-12-27T05:26:32.148Z,36.83
2022-12-27T05:28:58.780Z,37.05
2022-12-27T05:31:25.957Z,36.78
2022-12-27T05:33:52.552Z,36.72
2022-12-27T05:36:19.183Z,36.59
2022-12-27T05:38:45.655Z,36.91
2022-12-27T05:41:12.132Z,36.88
2022-12-27T05:43:38.736Z,36.82
2022-12-27T05:46:12.377Z,36.45
2022-12-27T05:48:38.903Z,36.63
2022-12-27T05:51:12.656Z,36.83
2022-12-27T05:53:39.462Z,36.76
2022-12-27T05:56:05.976Z,36.70
2022-12-27T05:58:32.795Z,36.75
2022-12-27T06:00:59.751Z,36.70
2022-12-27T06:03:26.381Z,36.56
2022-12-27T06:05:56.333Z,36.45
2022-12-27T06:08:22.800Z,36.71
2022-12-27T06:10:49.253Z,36.56
2022-12-27T06:13:15.730Z,36.49
2022-12-27T06:15:42.179Z,36.64
2022-12-27T06:18:08.636Z,36.46
2022-12-27T06:20:35.115Z,36.60
2022-12-27T06:23:01.891Z,36.69
2022-12-27T06:25:28.799Z,36.40
2022-12-27T06:27:55.252Z,36.37
2022-12-27T06:30:21.702Z,36.53
2022-12-27T06:32:48.203Z,36.45
2022-12-27T06:35:16.047Z,36.45
2022-12-27T06:37:42.569Z,36.48
2022-12-27T06:40:09.604Z,36.55
2022-12-27T06:42:36.331Z,36.67
2022-12-27T06:45:02.864Z,36.36
2022-12-27T06:47:29.320Z,36.40
2022-12-27T06:49:55.859Z,36.53
2022-12-27T06:52:23.486Z,36.51
2022-12-27T06:54:49.935Z,36.38
2022-12-27T06:57:16.377Z,36.39
2022-12-27T06:59:42.832Z,36.58
2022-12-27T07:02:10.548Z,36.35
2022-12-27T07:04:37.437Z,36.36
2022-12-27T07:07:03.883Z,36.43
2022-12-27T07:09:30.343Z,36.38
2022-12-27T07:11:56.803Z,36.37
2022-12-27T07:14:23.280Z,36.38
2022-12-27T07:16:49.908Z,36.38
2022-12-27T07:19:16.393Z,36.27
2022-12-27T07:21:42.929Z,36.35
2022-12-27T07:24:09.451Z,36.35
2022-12-27T07:26:36.222Z,36.43
2022-12-27T07:29:03.044Z,36.32
2022-12-27T07:31:31.649Z,36.21
2022-12-27T07:33:58.579Z,36.33
2022-12-27T07:36:26.524Z,36.34
2022-12-27T07:38:53.017Z,36.12
2022-12-27T07:41:19.575Z,36.17
2022-12-27T07:43:46.127Z,36.23
2022-12-27T07:46:17.127Z,36.29
2022-12-27T07:48:43.835Z,36.43
2022-12-27T07:51:10.389Z,36.05
2022-12-27T07:53:36.857Z,36.30
2022-12-27T07:56:10.414Z,36.24
2022-12-27T07:58:38.414Z,36.27
2022-12-27T08:01:05.137Z,36.17
2022-12-27T08:03:31.846Z,36.11
2022-12-27T08:05:58.334Z,36.23
2022-12-27T08:08:26.883Z,36.13
2022-12-27T08:10:53.373Z,36.25
2022-12-27T08:13:19.851Z,36.00
2022-12-27T08:15:46.305Z,35.78
2022-12-27T08:18:13.031Z,36.02
2022-12-27T08:20:39.484Z,35.88
2022-12-27T08:23:05.944Z,36.07
2022-12-27T08:25:32.415Z,35.80
2022-12-27T08:28:05.880Z,35.96
2022-12-27T08:30:32.386Z,36.09
2022-12-27T08:33:00.309Z,36.16
2022-12-27T08:35:51.410Z,36.20
2022-12-27T08:38:13.252Z,36.50
2022-12-27T08:40:40.652Z,36.47
2022-12-27T08:43:07.239Z,36.29
2022-12-27T08:45:33.716Z,36.41
2022-12-27T08:48:00.500Z,36.52
2022-12-27T08:50:27.529Z,36.50
2022-12-27T08:52:56.691Z,36.58
2022-12-27T08:55:23.163Z,36.97
2022-12-27T08:57:49.648Z,36.86
2022-12-27T09:00:16.363Z,36.91
2022-12-27T09:02:42.849Z,36.96
2022-12-27T09:05:09.415Z,36.75
2022-12-27T09:07:35.860Z,36.72
2022-12-27T09:10:02.328Z,36.96
2022-12-27T09:12:28.789Z,36.75
2022-12-27T09:14:56.366Z,36.78
2022-12-27T09:17:22.847Z,36.65
2022-12-27T09:19:49.386Z,37.14
2022-12-27T09:22:15.843Z,36.46
2022-12-27T09:24:42.346Z,37.10
2022-12-27T09:27:08.803Z,36.77
2022-12-27T09:29:35.309Z,36.90
2022-12-27T09:32:01.776Z,36.80
2022-12-27T09:34:28.237Z,36.65
2022-12-27T09:36:54.699Z,36.13
2022-12-27T09:39:21.178Z,36.69
2022-12-27T09:44:58.103Z,36.59
2022-12-27T09:47:48.508Z,36.57
2022-12-27T09:50:34.711Z,36.52
2022-12-27T09:53:14.245Z,36.28
2022-12-27T09:55:43.325Z,36.52
2022-12-27T09:58:34.016Z,36.31
2022-12-27T10:01:00.934Z,36.09
2022-12-27T10:03:27.928Z,36.21
2022-12-27T10:06:35.583Z,36.17
2022-12-27T10:09:26.635Z,36.39
2022-12-27T10:12:21.924Z,36.26
2022-12-27T10:15:05.381Z,36.22
2022-12-27T10:17:53.240Z,36.34
2022-12-27T10:20:53.940Z,36.19
2022-12-27T10:23:25.539Z,36.26
2022-12-27T10:25:58.051Z,36.43
2022-12-27T10:28:28.986Z,36.54
2022-12-27T10:30:55.503Z,36.51
2022-12-27T10:33:32.655Z,36.38
2022-12-27T10:35:59.157Z,36.25
2022-12-27T10:38:31.773Z,36.40
2022-12-27T10:41:18.035Z,36.14
2022-12-27T10:43:44.574Z,36.36
2022-12-27T10:46:16.745Z,36.04
2022-12-27T10:51:47.073Z,36.07
2022-12-27T10:54:14.514Z,35.95
2022-12-27T10:56:41.729Z,36.55
2022-12-27T10:59:19.461Z,36.13
2022-12-27T11:02:13.043Z,36.16
2022-12-27T11:04:54.866Z,36.33
2022-12-27T11:07:21.327Z,36.13
2022-12-27T11:09:51.196Z,36.11
2022-12-27T11:12:32.176Z,35.97
2022-12-27T11:15:04.029Z,36.33
2022-12-27T11:17:53.530Z,36.26
2022-12-27T11:20:30.226Z,36.38
2022-12-27T11:23:05.505Z,36.49
2022-12-27T11:25:32.167Z,36.57
2022-12-27T11:28:35.069Z,36.51
2022-12-27T11:31:03.932Z,36.47
2022-12-27T11:33:41.388Z,36.39
2022-12-27T11:36:08.928Z,36.77
2022-12-27T11:38:36.401Z,36.51
2022-12-27T11:41:07.257Z,36.73
2022-12-27T11:43:37.279Z,36.51
2022-12-27T11:46:05.659Z,36.70
2022-12-27T11:48:40.862Z,36.80
2022-12-27T11:51:37.947Z,36.86
2022-12-27T11:54:35.460Z,36.95
2022-12-27T11:57:13.867Z,36.64
2022-12-27T11:59:54.135Z,36.86
2022-12-27T12:02:30.703Z,36.70
2022-12-27T12:05:15.590Z,36.61
2022-12-27T12:08:02.381Z,36.64
2022-12-27T12:10:46.984Z,36.42
2022-12-27T12:13:19.685Z,36.31
2022-12-27T12:15:54.648Z,36.31
2022-12-27T12:18:42.339Z,36.34
2022-12-27T12:21:36.482Z,36.14
2022-12-27T12:24:19.455Z,36.28
2022-12-27T12:27:22.323Z,36.27
2022-12-27T12:30:04.159Z,36.47
2022-12-27T12:32:58.345Z,36.42
2022-12-27T12:35:49.036Z,36.25
2022-12-27T12:38:22.386Z,36.15
2022-12-27T12:41:11.206Z,36.46
2022-12-27T12:43:49.860Z,36.47
2022-12-27T12:46:23.555Z,36.55
2022-12-27T12:48:55.877Z,36.59
2022-12-27T12:51:59.908Z,36.41
2022-12-27T12:54:43.802Z,36.53
2022-12-27T12:57:17.348Z,36.44
2022-12-27T13:00:08.875Z,36.52
2022-12-27T13:02:53.809Z,36.51
2022-12-27T13:05:43.772Z,36.57
2022-12-27T13:08:35.084Z,36.65
2022-12-27T13:11:46.179Z,36.52
2022-12-27T13:14:31.724Z,36.38
2022-12-27T13:17:01.576Z,36.29
2022-12-27T13:19:59.281Z,36.40
2022-12-27T13:22:31.708Z,36.40
2022-12-27T13:25:45.895Z,36.28
2022-12-27T13:28:36.297Z,36.45
2022-12-27T13:31:03.425Z,36.32
2022-12-27T13:33:44.645Z,36.63
2022-12-27T13:36:32.440Z,36.72
2022-12-27T13:39:17.972Z,36.62
2022-12-27T13:41:47.401Z,36.64
2022-12-27T13:44:13.787Z,36.83
2022-12-27T13:46:46.371Z,36.88
2022-12-27T13:49:21.936Z,36.72
2022-12-27T13:51:48.827Z,36.71
2022-12-27T13:54:29.079Z,36.91
2022-12-27T13:57:18.370Z,36.68
2022-12-27T14:00:04.210Z,36.71
2022-12-27T14:02:51.492Z,36.86
2022-12-27T14:06:00.946Z,36.64
2022-12-27T14:08:33.580Z,37.01
2022-12-27T14:11:01.280Z,36.99
2022-12-27T14:13:38.898Z,36.77
2022-12-27T14:16:30.017Z,36.66
2022-12-27T14:19:06.143Z,36.53
2022-12-27T14:21:54.772Z,36.70
2022-12-27T14:24:50.840Z,36.38
2022-12-27T14:27:54.962Z,36.42
2022-12-27T14:30:34.114Z,36.30
2022-12-27T14:33:22.429Z,36.42
2022-12-27T14:36:26.428Z,36.34
2022-12-27T14:39:25.238Z,36.42
2022-12-27T14:42:16.824Z,36.30
2022-12-27T14:45:03.335Z,36.30
2022-12-27T14:48:08.721Z,36.49
2022-12-27T14:50:53.532Z,36.38
2022-12-27T14:53:54.185Z,36.26
2022-12-27T14:56:32.517Z,36.29
2022-12-27T14:59:26.477Z,36.18
2022-12-27T15:02:06.408Z,36.27
2022-12-27T15:04:54.809Z,36.29
2022-12-27T15:07:50.654Z,36.18
2022-12-27T15:10:39.460Z,35.92
2022-12-27T15:13:15.826Z,36.19
2022-12-27T15:15:57.410Z,36.13
2022-12-27T15:18:47.345Z,36.10
2022-12-27T15:21:51.515Z,36.13
2022-12-27T15:24:47.471Z,36.68
2022-12-27T15:27:32.121Z,36.86
2022-12-27T15:30:21.722Z,36.88
2022-12-27T15:33:45.282Z,36.74
2022-12-27T15:36:15.868Z,36.86
2022-12-27T15:38:52.960Z,36.62
2022-12-27T15:41:55.246Z,36.70
2022-12-27T15:44:31.255Z,36.58
2022-12-27T15:47:15.665Z,36.74
2022-12-27T15:49:46.287Z,36.54
2022-12-27T15:52:44.955Z,37.28
2022-12-27T15:55:20.517Z,37.15
2022-12-27T15:58:13.111Z,37.01
2022-12-27T16:00:39.895Z,37.67
2022-12-27T16:03:32.945Z,37.76
2022-12-27T16:05:59.805Z,37.75
2022-12-27T16:08:37.637Z,37.41
2022-12-27T16:11:06.241Z,37.09
2022-12-27T16:13:42.494Z,37.04
2022-12-27T16:16:32.215Z,37.16
2022-12-27T16:19:21.882Z,36.96
2022-12-27T16:21:48.474Z,37.07
2022-12-27T16:24:22.881Z,37.21
2022-12-27T16:27:02.891Z,37.31
2022-12-27T16:29:36.096Z,37.20
2022-12-27T16:32:32.102Z,37.24
2022-12-27T16:35:11.996Z,37.41
2022-12-27T16:37:44.901Z,37.43
2022-12-27T16:40:42.226Z,37.40
2022-12-27T16:43:08.557Z,37.62
2022-12-27T16:45:37.642Z,37.60
2022-12-27T16:48:25.383Z,37.46
2022-12-27T16:51:13.721Z,37.42
2022-12-27T16:54:03.340Z,37.22
2022-12-27T16:56:31.947Z,37.17
2022-12-27T16:58:58.384Z,37.31
2022-12-27T17:01:28.360Z,37.04
2022-12-27T17:03:55.872Z,37.08
2022-12-27T17:06:31.797Z,36.95
2022-12-27T17:09:08.496Z,36.77
2022-12-27T17:11:56.472Z,36.85
2022-12-27T17:14:28.228Z,36.62
2022-12-27T17:17:00.350Z,36.75
2022-12-27T17:19:39.848Z,36.49
2022-12-27T17:22:07.280Z,36.60
2022-12-27T17:24:33.766Z,36.84
2022-12-27T17:27:24.676Z,36.97
2022-12-27T17:30:02.241Z,37.12
2022-12-27T17:32:44.216Z,37.73
2022-12-27T17:35:35.428Z,37.88
2022-12-27T17:38:13.879Z,38.87
2022-12-27T17:41:07.004Z,38.78
2022-12-27T17:44:24.305Z,39.70
2022-12-27T17:47:18.522Z,40.91
2022-12-27T17:49:45.008Z,41.00
2022-12-27T17:52:34.722Z,41.18
2022-12-27T17:55:42.598Z,40.67
2022-12-27T17:58:14.119Z,40.97
2022-12-27T18:00:56.315Z,40.96
2022-12-27T18:03:22.936Z,41.39
2022-12-27T18:05:49.548Z,40.68
2022-12-27T18:08:28.709Z,40.98
2022-12-27T18:10:56.246Z,40.49
2022-12-27T18:13:24.124Z,41.36
2022-12-27T18:15:50.628Z,40.34
2022-12-27T18:18:27.098Z,40.05
2022-12-27T18:20:59.655Z,39.85
2022-12-27T18:23:26.438Z,39.92
2022-12-27T18:25:57.755Z,40.52
2022-12-27T18:28:33.879Z,40.65
2022-12-27T18:31:03.324Z,40.97
2022-12-27T18:33:32.387Z,40.61
2022-12-27T18:35:58.871Z,40.60
2022-12-27T18:38:30.465Z,39.96
2022-12-27T18:41:05.300Z,39.74
2022-12-27T18:43:31.989Z,39.79
2022-12-27T18:45:58.506Z,39.77
2022-12-27T18:48:33.547Z,40.07
2022-12-27T18:51:00.732Z,40.74
2022-12-27T18:53:35.886Z,40.78
2022-12-27T18:56:24.850Z,40.57
2022-12-27T18:59:01.396Z,40.48
2022-12-27T19:01:31.071Z,40.56
2022-12-27T19:04:18.706Z,40.42
2022-12-27T19:06:58.513Z,40.47
2022-12-27T19:09:39.243Z,40.53
2022-12-27T19:12:27.170Z,40.82
2022-12-27T19:14:53.637Z,40.79
2022-12-27T19:17:24.587Z,40.80
2022-12-27T19:19:52.792Z,40.63
2022-12-27T19:22:47.744Z,40.66
2022-12-27T19:25:36.666Z,40.97
2022-12-27T19:28:04.371Z,41.03
2022-12-27T19:30:47.782Z,40.99
2022-12-27T19:33:18.495Z,41.20
2022-12-27T19:35:45.201Z,41.05
2022-12-27T19:38:18.586Z,41.02
2022-12-27T19:40:47.087Z,41.37
2022-12-27T19:43:14.023Z,41.17
2022-12-27T19:45:44.571Z,41.34
2022-12-27T19:48:12.608Z,41.26
2022-12-27T19:50:46.946Z,40.88
2022-12-27T19:53:20.623Z,39.99
2022-12-27T19:55:47.514Z,40.57
2022-12-27T19:58:27.019Z,40.55
2022-12-27T20:00:56.791Z,40.53
2022-12-27T20:03:23.463Z,40.79
2022-12-27T20:06:12.668Z,39.87
2022-12-27T20:08:42.344Z,39.55
2022-12-27T20:11:13.211Z,39.19
2022-12-27T20:13:39.703Z,38.91
2022-12-27T20:16:06.684Z,38.75
2022-12-27T20:18:33.207Z,38.54
2022-12-27T20:20:59.651Z,38.66
2022-12-27T20:23:26.151Z,38.34
2022-12-27T20:25:52.629Z,38.61
2022-12-27T20:28:19.225Z,38.14
2022-12-27T20:30:45.896Z,37.99
2022-12-27T20:33:12.369Z,38.22
2022-12-27T20:35:38.828Z,38.19
2022-12-27T20:38:05.423Z,38.28
2022-12-27T20:40:32.010Z,37.68
2022-12-27T20:42:58.731Z,37.81
2022-12-27T20:45:25.225Z,37.81
2022-12-27T20:47:51.717Z,37.64
2022-12-27T20:50:18.223Z,37.77
2022-12-27T20:52:44.709Z,37.65
2022-12-27T20:55:11.940Z,37.64
2022-12-27T20:57:39.185Z,38.02
2022-12-27T21:00:07.130Z,37.81
2022-12-27T21:02:33.995Z,37.85
2022-12-27T21:05:00.543Z,37.73
2022-12-27T21:07:27.073Z,38.02
2022-12-27T21:09:53.849Z,37.65
2022-12-27T21:12:20.310Z,37.96
2022-12-27T21:14:47.266Z,38.65
2022-12-27T21:17:13.732Z,38.42
2022-12-27T21:19:40.203Z,38.08
2022-12-27T21:22:09.663Z,38.02
2022-12-27T21:24:36.802Z,37.98
2022-12-27T21:27:03.715Z,38.29
2022-12-27T21:29:31.037Z,38.36
2022-12-27T21:31:59.024Z,38.42
2022-12-27T21:34:25.865Z,38.06
2022-12-27T21:36:52.801Z,38.41
2022-12-27T21:39:21.048Z,38.32
2022-12-27T21:41:47.900Z,38.45
2022-12-27T21:44:18.171Z,38.15
2022-12-27T21:46:45.129Z,38.17
2022-12-27T21:49:15.556Z,38.04
2022-12-27T21:51:44.207Z,38.42
2022-12-27T21:54:15.072Z,38.77
2022-12-27T21:56:41.608Z,38.18
2022-12-27T21:59:11.072Z,38.54
2022-12-27T22:01:50.474Z,38.87
2022-12-27T22:04:19.822Z,38.30
2022-12-27T22:06:47.494Z,37.85
2022-12-27T22:09:14.472Z,37.69
2022-12-27T22:11:40.974Z,37.71
2022-12-27T22:14:07.562Z,37.66
2022-12-27T22:16:35.612Z,37.29
2022-12-27T22:19:02.458Z,37.40
2022-12-27T22:21:30.653Z,37.34
2022-12-27T22:23:58.092Z,37.13
2022-12-27T22:26:26.439Z,37.21
2022-12-27T22:28:52.892Z,37.26
2022-12-27T22:31:24.341Z,37.46
2022-12-27T22:33:50.884Z,37.25
2022-12-27T22:36:19.207Z,37.09
2022-12-27T22:38:49.497Z,37.28
2022-12-27T22:41:18.527Z,37.29
2022-12-27T22:43:50.037Z,37.53
2022-12-27T22:46:16.523Z,37.56
2022-12-27T22:48:43.015Z,37.83
2022-12-27T22:51:10.538Z,38.06
2022-12-27T22:53:36.998Z,37.95
2022-12-27T22:56:03.524Z,38.01
2022-12-27T22:58:32.764Z,37.88
2022-12-27T23:00:59.230Z,38.18
2022-12-27T23:03:25.692Z,38.12
2022-12-27T23:05:59.006Z,38.55
2022-12-27T23:08:25.499Z,38.23
2022-12-27T23:10:52.257Z,38.31
2022-12-27T23:13:22.173Z,38.57
2022-12-27T23:15:56.565Z,38.75
2022-12-27T23:18:23.055Z,38.35
2022-12-27T23:21:19.972Z,38.49
2022-12-27T23:23:36.002Z,38.48
2022-12-27T23:26:07.018Z,38.37
2022-12-27T23:28:37.297Z,38.89
2022-12-27T23:31:07.252Z,38.54
2022-12-27T23:33:33.806Z,38.60
2022-12-27T23:36:00.409Z,38.39
2022-12-27T23:38:26.872Z,38.26
2022-12-27T23:40:56.798Z,38.51
2022-12-27T23:43:51.069Z,38.62
2022-12-27T23:46:13.098Z,38.61
2022-12-27T23:48:39.852Z,38.62
2022-12-27T23:51:06.348Z,38.61
2022-12-27T23:53:32.883Z,38.31
2022-12-27T23:56:00.439Z,38.10
2022-12-27T23:58:26.975Z,38.55
